• Join FlightAware (Why Join?)
  • Login
  • US Flag 
04:04AM EDT


 

Airport Tracker/Info


-or-


 

Live Flight TrackerFlight Track Log ✈ EJA929 ✈ 28-Jun-2013 ✈ KFAT - KHDN

Flight Track Log - Related Links

Times and Time Zones

All times are in EDT time to prevent confusion due to time zone crossing. See the EJA929 flight status page for this flight to view local times or setup timezone preferences in your user account.

Time Position Orientation Groundspeed Altitude Reporting Facility
EDT Latitude Longitude Course Direction KTS MPH feet Rate Location/Type
06:55PM 36.7922 -119.7494 13° North 183 211 1,700  Level Oakland Center
06:56PM 36.8414 -119.7353 13° North 227 261 5,000 3,240 Climbing Oakland Center
06:58PM 36.8850 -119.6619 53° Northeast 268 308 8,400 3,600 Climbing Oakland Center
06:59PM 36.9372 -119.5767 53° Northeast 305 351 12,400 3,960 Climbing Oakland Center
07:00PM 36.9900 -119.4894 53° Northeast 313 360 16,600 3,540 Climbing Oakland Center
07:01PM 37.0411 -119.3978 55° Northeast 321 369 19,700 2,820 Climbing Oakland Center
07:02PM 37.0917 -119.2758 63° Northeast 330 380 22,500 1,620 Climbing Oakland Center
07:03PM 37.1239 -119.1578 71° East 381 438 23,100 1,140 Climbing Oakland Center
07:04PM 37.1106 -119.0244 97° East 394 453 24,900 2,040 Climbing Oakland Center
07:05PM 37.0919 -118.8894 100° East 394 453 27,400 1,980 Climbing Oakland Center
07:06PM 37.0739 -118.7575 100° East 384 442 29,000 960 Climbing Oakland Center
07:07PM 37.0997 -118.6122 77° East 442 509 29,300 840 Climbing Los Angeles Center
07:08PM 37.1903 -118.4944 46° Northeast 473 544 30,700 1,320 Climbing Los Angeles Center
07:09PM 37.3025 -118.4008 34° Northeast 481 554 32,100 1,440 Climbing Los Angeles Center
07:10PM 37.4322 -118.2794 37° Northeast 487 560 33,800 1,440 Climbing Oakland Center
07:11PM 37.5128 -118.1397 54° Northeast 495 570 35,200 1,320 Climbing Oakland Center
07:12PM 37.5833 -117.9914 59° Northeast 496 571 36,600 840 Climbing Oakland Center
07:13PM 37.6539 -117.8422 59° Northeast 495 570 37,000 180 Climbing Oakland Center
07:14PM 37.7275 -117.6861 59° Northeast 515 593 37,000  Level Oakland Center
07:15PM 37.8014 -117.5289 59° Northeast 520 598 37,000 600 Level Oakland Center
07:16PM 37.8725 -117.3744 60° Northeast 516 594 38,300 1,260 Climbing Oakland Center
07:17PM 37.9414 -117.2247 60° Northeast 504 580 39,600 1,200 Climbing Salt Lake Center
07:18PM 38.0081 -117.0772 60° Northeast 495 570 40,700 660 Climbing Salt Lake Center
07:19PM 38.0739 -116.8883 66° East 497 572 41,000 120 Climbing Salt Lake Center
07:20PM 38.1244 -116.7244 69° East 502 578 41,000  Level Salt Lake Center
07:21PM 38.1736 -116.5589 69° East 502 578 41,000  Level Oakland Center
07:22PM 38.2239 -116.3950 69° East 501 577 41,000  Level Salt Lake Center
07:23PM 38.2719 -116.2319 69° East 496 571 41,000  Level Salt Lake Center
07:24PM 38.3208 -116.0675 69° East 496 571 41,000  Level Salt Lake Center
07:25PM 38.3792 -115.8667 70° East 502 578 41,000  Level Salt Lake Center
07:26PM 38.4283 -115.6981 70° East 506 582 41,000  Level Salt Lake Center
07:27PM 38.4772 -115.5297 70° East 507 583 41,000  Level Salt Lake Center
07:28PM 38.5261 -115.3608 70° East 508 585 41,000  Level Salt Lake Center
07:29PM 38.5728 -115.1964 70° East 509 586 41,000  Level Salt Lake Center
07:30PM 38.6211 -115.0261 70° East 510 587 41,000  Level Salt Lake Center
07:31PM 38.6789 -114.8208 70° East 509 586 41,000  Level Salt Lake Center
07:32PM 38.7269 -114.6503 70° East 510 587 41,000  Level Salt Lake Center
07:33PM 38.7750 -114.4792 70° East 511 588 41,000  Level Salt Lake Center
07:34PM 38.8225 -114.3075 70° East 510 587 41,000  Level Salt Lake Center
07:35PM 38.8703 -114.1347 70° East 512 589 41,000  Level Salt Lake Center
07:36PM 38.9169 -113.9631 71° East 511 588 41,000  Level Salt Lake Center
07:38PM 38.9636 -113.7906 71° East 510 587 41,000  Level Salt Lake Center
07:39PM 39.0192 -113.5847 71° East 509 586 41,000  Level Salt Lake Center
07:40PM 39.0653 -113.4128 71° East 508 585 41,000  Level Salt Lake Center
07:41PM 39.1103 -113.2417 71° East 505 581 41,000 720 Level Salt Lake Center
07:42PM 39.1553 -113.0711 71° East 504 580 42,500 960 Climbing Salt Lake Center
07:43PM 39.1981 -112.9067 71° East 492 566 43,000 540 Climbing Salt Lake Center
07:44PM 39.2433 -112.7403 71° East 491 565 43,700 720 Climbing Salt Lake Center
07:45PM 39.2875 -112.5744 71° East 490 564 44,600 600 Climbing Salt Lake Center
07:46PM 39.3472 -112.3814 68° East 489 563 45,000 180 Climbing Salt Lake Center
07:47PM 39.4053 -112.2258 64° Northeast 488 562 45,000  Level Salt Lake Center
07:48PM 39.4636 -112.0675 64° Northeast 489 563 45,000  Level Salt Lake Center
07:49PM 39.5208 -111.9089 65° Northeast 488 562 45,000  Level Salt Lake Center
07:50PM 39.5783 -111.7492 65° Northeast 491 565 45,000  Level Salt Lake Center
07:51PM 39.6356 -111.5883 65° Northeast 493 567 45,000  Level Salt Lake Center
07:52PM 39.7053 -111.3950 65° Northeast 495 570 45,000  Level Salt Lake Center
07:53PM 39.7597 -111.2422 65° Northeast 492 566 45,000  Level Salt Lake Center
07:54PM 39.8161 -111.0875 65° Northeast 493 567 45,000  Level Salt Lake Center
07:55PM 39.8792 -110.9064 66° East 491 565 45,000  Level Salt Lake Center
07:56PM 39.9347 -110.7494 65° Northeast 496 571 45,000  Level Salt Lake Center
07:57PM 39.9983 -110.5664 66° East 495 570 45,000  Level Salt Lake Center
07:58PM 40.0525 -110.4103 66° East 494 568 45,000  Level Salt Lake Center
07:59PM 40.1150 -110.2267 66° East 494 568 45,000  Level Salt Lake Center
08:00PM 40.1589 -110.0636 71° East 496 571 45,000  Level Salt Lake Center
08:01PM 40.1831 -109.8925 79° East 499 574 45,000 -180 Level Salt Lake Center
08:02PM 40.2108 -109.6931 80° East 498 573 44,700 -840 Descending Salt Lake Center
08:03PM 40.2347 -109.5183 80° East 506 582 43,300 -2,640 Descending Salt Lake Center
08:04PM 40.2639 -109.3092 80° East 518 596 39,400 -3,660 Descending Salt Lake Center
08:05PM 40.2881 -109.1361 80° East 507 583 35,800 -3,780 Descending Salt Lake Center
08:06PM 40.3156 -108.9286 80° East 514 592 31,600 -3,420 Descending Salt Lake Center
08:07PM 40.3381 -108.7572 80° East 496 571 29,000 -2,280 Descending Denver Center
08:08PM 40.3606 -108.5844 80° East 474 545 27,000 -1,620 Descending Salt Lake Center
08:09PM 40.3839 -108.4072 80° East 471 542 25,700 -1,740 Descending Denver Center
08:10PM 40.4044 -108.2422 81° East 476 548 23,500 -2,400 Descending Denver Center
08:12PM 40.4311 -108.0289 81° East 464 534 20,300 -2,880 Descending Denver Center
08:13PM 40.4497 -107.8775 81° East 444 511 17,000 -3,540 Descending Denver Center
08:14PM 40.4694 -107.7200 81° East 398 458 13,100 -3,000 Descending Denver Center
08:15PM 40.4858 -107.5906 81° East 379 436 10,800 -1,320 Descending Denver Center
08:16PM 40.4992 -107.4836 81° East 307 353 10,400 -1,020 Descending Denver Center
08:17PM 40.5144 -107.3858 78° East 281 323 8,800 -1,560 Descending Denver Center